sensor_id;sensor_type;location;lat;lon;timestamp;temperature;humidity
57030;DHT22;42920;45.306;20.448;2023-04-15T00:00:42;230.90;2252.80
57030;DHT22;42920;45.306;20.448;2023-04-15T00:03:08;230.80;2252.80
57030;DHT22;42920;45.306;20.448;2023-04-15T00:05:33;230.80;2252.80
57030;DHT22;42920;45.306;20.448;2023-04-15T00:08:00;230.70;2252.80
57030;DHT22;42920;45.306;20.448;2023-04-15T00:10:26;230.80;2252.80
57030;DHT22;42920;45.306;20.448;2023-04-15T00:12:52;230.80;2252.80
57030;DHT22;42920;45.306;20.448;2023-04-15T00:15:18;230.80;2252.80
57030;DHT22;42920;45.306;20.448;2023-04-15T00:17:43;230.80;2252.80
57030;DHT22;42920;45.306;20.448;2023-04-15T00:20:10;230.90;2252.80
57030;DHT22;42920;45.306;20.448;2023-04-15T00:22:36;230.80;2252.80
57030;DHT22;42920;45.306;20.448;2023-04-15T00:25:02;230.70;2252.80
57030;DHT22;42920;45.306;20.448;2023-04-15T00:27:27;230.70;2252.80
57030;DHT22;42920;45.306;20.448;2023-04-15T00:29:54;230.80;2252.80
57030;DHT22;42920;45.306;20.448;2023-04-15T00:32:20;230.80;2252.80
57030;DHT22;42920;45.306;20.448;2023-04-15T00:34:46;230.90;2252.80
57030;DHT22;42920;45.306;20.448;2023-04-15T00:37:12;230.90;2252.80
57030;DHT22;42920;45.306;20.448;2023-04-15T00:39:37;231.00;2252.80
57030;DHT22;42920;45.306;20.448;2023-04-15T00:42:03;231.00;2252.80
57030;DHT22;42920;45.306;20.448;2023-04-15T00:44:29;230.90;2252.80
57030;DHT22;42920;45.306;20.448;2023-04-15T00:46:56;230.90;2252.80
57030;DHT22;42920;45.306;20.448;2023-04-15T00:49:22;230.90;2252.80
57030;DHT22;42920;45.306;20.448;2023-04-15T00:51:48;230.90;2252.80
57030;DHT22;42920;45.306;20.448;2023-04-15T00:54:14;230.90;2252.80
57030;DHT22;42920;45.306;20.448;2023-04-15T00:56:41;230.70;2252.80
57030;DHT22;42920;45.306;20.448;2023-04-15T00:59:07;230.80;2252.80
57030;DHT22;42920;45.306;20.448;2023-04-15T01:01:36;230.70;2252.80
57030;DHT22;42920;45.306;20.448;2023-04-15T01:04:03;230.60;2252.80
57030;DHT22;42920;45.306;20.448;2023-04-15T01:06:29;230.70;2252.80
57030;DHT22;42920;45.306;20.448;2023-04-15T01:08:57;230.70;2252.80
57030;DHT22;42920;45.306;20.448;2023-04-15T01:11:23;230.70;2252.80
57030;DHT22;42920;45.306;20.448;2023-04-15T01:13:51;230.90;2252.80
57030;DHT22;42920;45.306;20.448;2023-04-15T01:16:18;230.70;2252.80
57030;DHT22;42920;45.306;20.448;2023-04-15T01:18:44;230.80;2252.80
57030;DHT22;42920;45.306;20.448;2023-04-15T01:21:10;230.90;2252.80
57030;DHT22;42920;45.306;20.448;2023-04-15T01:23:37;230.90;2252.80
57030;DHT22;42920;45.306;20.448;2023-04-15T01:26:04;230.90;2252.80
57030;DHT22;42920;45.306;20.448;2023-04-15T01:28:30;230.90;2252.80
57030;DHT22;42920;45.306;20.448;2023-04-15T01:31:07;230.90;2252.80
57030;DHT22;42920;45.306;20.448;2023-04-15T01:33:33;230.90;2252.80
57030;DHT22;42920;45.306;20.448;2023-04-15T01:35:59;230.90;2252.80
57030;DHT22;42920;45.306;20.448;2023-04-15T01:38:26;231.00;2252.80
57030;DHT22;42920;45.306;20.448;2023-04-15T01:40:52;230.80;2252.80
57030;DHT22;42920;45.306;20.448;2023-04-15T01:43:18;230.60;2252.80
57030;DHT22;42920;45.306;20.448;2023-04-15T01:45:44;230.60;2252.80
57030;DHT22;42920;45.306;20.448;2023-04-15T01:48:10;230.70;2252.80
57030;DHT22;42920;45.306;20.448;2023-04-15T01:50:36;230.70;2252.80
57030;DHT22;42920;45.306;20.448;2023-04-15T01:53:03;230.90;2252.80
57030;DHT22;42920;45.306;20.448;2023-04-15T01:55:28;230.90;2252.80
57030;DHT22;42920;45.306;20.448;2023-04-15T01:57:55;230.90;2252.80
57030;DHT22;42920;45.306;20.448;2023-04-15T02:00:21;230.90;2252.80
57030;DHT22;42920;45.306;20.448;2023-04-15T02:02:47;231.00;2252.80
57030;DHT22;42920;45.306;20.448;2023-04-15T02:05:14;231.00;2252.80
57030;DHT22;42920;45.306;20.448;2023-04-15T02:07:41;230.90;2252.80
57030;DHT22;42920;45.306;20.448;2023-04-15T02:10:08;230.70;2252.80
57030;DHT22;42920;45.306;20.448;2023-04-15T02:12:35;230.70;2252.80
57030;DHT22;42920;45.306;20.448;2023-04-15T02:15:00;230.70;2252.80
57030;DHT22;42920;45.306;20.448;2023-04-15T02:17:26;230.60;2252.80
57030;DHT22;42920;45.306;20.448;2023-04-15T02:19:52;230.60;2252.80
57030;DHT22;42920;45.306;20.448;2023-04-15T02:22:20;230.60;2252.80
57030;DHT22;42920;45.306;20.448;2023-04-15T02:24:46;230.70;2252.80
57030;DHT22;42920;45.306;20.448;2023-04-15T02:27:16;230.70;2252.80
57030;DHT22;42920;45.306;20.448;2023-04-15T02:29:43;230.70;2252.80
57030;DHT22;42920;45.306;20.448;2023-04-15T02:32:09;230.80;2252.80
57030;DHT22;42920;45.306;20.448;2023-04-15T02:34:36;230.70;2252.80
57030;DHT22;42920;45.306;20.448;2023-04-15T02:37:06;230.70;2252.80
57030;DHT22;42920;45.306;20.448;2023-04-15T02:39:32;230.60;2252.80
57030;DHT22;42920;45.306;20.448;2023-04-15T02:41:58;230.50;2252.80
57030;DHT22;42920;45.306;20.448;2023-04-15T02:44:25;230.50;2252.80
57030;DHT22;42920;45.306;20.448;2023-04-15T02:46:52;230.40;2252.80
57030;DHT22;42920;45.306;20.448;2023-04-15T02:49:20;230.40;2252.80
57030;DHT22;42920;45.306;20.448;2023-04-15T02:51:46;230.50;2252.80
57030;DHT22;42920;45.306;20.448;2023-04-15T02:54:19;230.60;2252.80
57030;DHT22;42920;45.306;20.448;2023-04-15T02:56:45;230.70;2252.80
57030;DHT22;42920;45.306;20.448;2023-04-15T02:59:13;230.80;2252.80
57030;DHT22;42920;45.306;20.448;2023-04-15T03:01:39;230.90;2252.80
57030;DHT22;42920;45.306;20.448;2023-04-15T03:04:05;230.90;2252.80
57030;DHT22;42920;45.306;20.448;2023-04-15T03:06:33;230.80;2252.80
57030;DHT22;42920;45.306;20.448;2023-04-15T03:08:59;230.90;2252.80
57030;DHT22;42920;45.306;20.448;2023-04-15T03:11:28;231.00;2252.80
57030;DHT22;42920;45.306;20.448;2023-04-15T03:13:53;231.00;2252.80
57030;DHT22;42920;45.306;20.448;2023-04-15T03:16:19;230.90;2252.80
57030;DHT22;42920;45.306;20.448;2023-04-15T03:18:45;230.70;2252.80
57030;DHT22;42920;45.306;20.448;2023-04-15T03:21:11;230.60;2252.80
57030;DHT22;42920;45.306;20.448;2023-04-15T03:23:36;230.50;2252.80
57030;DHT22;42920;45.306;20.448;2023-04-15T03:26:03;230.40;2252.80
57030;DHT22;42920;45.306;20.448;2023-04-15T03:28:29;205.70;2252.80
57030;DHT22;42920;45.306;20.448;2023-04-15T03:30:55;205.70;2252.80
57030;DHT22;42920;45.306;20.448;2023-04-15T03:33:21;205.70;2252.80
57030;DHT22;42920;45.306;20.448;2023-04-15T03:35:47;230.40;2252.80
57030;DHT22;42920;45.306;20.448;2023-04-15T03:38:12;230.50;2252.80
57030;DHT22;42920;45.306;20.448;2023-04-15T03:40:41;230.40;2252.80
57030;DHT22;42920;45.306;20.448;2023-04-15T03:43:07;230.40;2252.80
57030;DHT22;42920;45.306;20.448;2023-04-15T03:45:33;205.60;2252.80
57030;DHT22;42920;45.306;20.448;2023-04-15T03:47:58;205.60;2252.80
57030;DHT22;42920;45.306;20.448;2023-04-15T03:50:24;205.50;2252.80
57030;DHT22;42920;45.306;20.448;2023-04-15T03:52:51;205.50;2252.80
57030;DHT22;42920;45.306;20.448;2023-04-15T03:55:16;205.50;2252.80
57030;DHT22;42920;45.306;20.448;2023-04-15T03:57:42;205.40;2252.80
57030;DHT22;42920;45.306;20.448;2023-04-15T04:00:08;205.40;2252.80
57030;DHT22;42920;45.306;20.448;2023-04-15T04:02:37;205.40;2252.80
57030;DHT22;42920;45.306;20.448;2023-04-15T04:05:03;205.40;2252.80
57030;DHT22;42920;45.306;20.448;2023-04-15T04:07:29;205.40;2252.80
57030;DHT22;42920;45.306;20.448;2023-04-15T04:09:56;205.30;2252.80
57030;DHT22;42920;45.306;20.448;2023-04-15T04:12:22;205.30;2252.80
57030;DHT22;42920;45.306;20.448;2023-04-15T04:14:47;205.20;2252.80
57030;DHT22;42920;45.306;20.448;2023-04-15T04:17:13;205.20;2252.80
57030;DHT22;42920;45.306;20.448;2023-04-15T04:19:39;205.20;2252.80
57030;DHT22;42920;45.306;20.448;2023-04-15T04:22:04;205.30;2252.80
57030;DHT22;42920;45.306;20.448;2023-04-15T04:24:30;205.40;2252.80
57030;DHT22;42920;45.306;20.448;2023-04-15T04:26:56;205.40;2252.80
57030;DHT22;42920;45.306;20.448;2023-04-15T04:29:22;205.50;2252.80
57030;DHT22;42920;45.306;20.448;2023-04-15T04:31:48;205.50;2252.80
57030;DHT22;42920;45.306;20.448;2023-04-15T04:34:14;205.60;2252.80
57030;DHT22;42920;45.306;20.448;2023-04-15T04:36:40;205.70;2252.80
57030;DHT22;42920;45.306;20.448;2023-04-15T04:39:06;205.70;2252.80
57030;DHT22;42920;45.306;20.448;2023-04-15T04:41:32;230.40;2252.80
57030;DHT22;42920;45.306;20.448;2023-04-15T04:43:58;230.40;2252.80
57030;DHT22;42920;45.306;20.448;2023-04-15T04:46:24;230.50;2252.80
57030;DHT22;42920;45.306;20.448;2023-04-15T04:48:49;230.50;2252.80
57030;DHT22;42920;45.306;20.448;2023-04-15T04:51:15;230.40;2252.80
57030;DHT22;42920;45.306;20.448;2023-04-15T04:53:41;230.70;2252.80
57030;DHT22;42920;45.306;20.448;2023-04-15T04:56:07;230.70;2252.80
57030;DHT22;42920;45.306;20.448;2023-04-15T04:58:33;230.70;2252.80
57030;DHT22;42920;45.306;20.448;2023-04-15T05:00:59;230.70;2252.80
57030;DHT22;42920;45.306;20.448;2023-04-15T05:03:24;230.80;2252.80
57030;DHT22;42920;45.306;20.448;2023-04-15T05:05:50;230.90;2252.80
57030;DHT22;42920;45.306;20.448;2023-04-15T05:08:16;230.80;2252.80
57030;DHT22;42920;45.306;20.448;2023-04-15T05:10:42;230.80;2252.80
57030;DHT22;42920;45.306;20.448;2023-04-15T05:13:07;230.70;2252.80
57030;DHT22;42920;45.306;20.448;2023-04-15T05:15:33;230.80;2252.80
57030;DHT22;42920;45.306;20.448;2023-04-15T05:18:01;230.80;2252.80
57030;DHT22;42920;45.306;20.448;2023-04-15T05:20:27;230.80;2252.80
57030;DHT22;42920;45.306;20.448;2023-04-15T05:22:52;230.80;2252.80
57030;DHT22;42920;45.306;20.448;2023-04-15T05:25:18;230.70;2252.80
57030;DHT22;42920;45.306;20.448;2023-04-15T05:27:43;230.70;2252.80
57030;DHT22;42920;45.306;20.448;2023-04-15T05:30:10;230.80;2252.80
57030;DHT22;42920;45.306;20.448;2023-04-15T05:32:35;230.80;2252.80
57030;DHT22;42920;45.306;20.448;2023-04-15T05:35:01;230.90;2252.80
57030;DHT22;42920;45.306;20.448;2023-04-15T05:37:27;231.00;2252.80
57030;DHT22;42920;45.306;20.448;2023-04-15T05:39:53;231.00;2252.80
57030;DHT22;42920;45.306;20.448;2023-04-15T05:42:18;231.10;2252.80
57030;DHT22;42920;45.306;20.448;2023-04-15T05:44:44;231.20;2252.80
57030;DHT22;42920;45.306;20.448;2023-04-15T05:47:10;231.30;2252.80
57030;DHT22;42920;45.306;20.448;2023-04-15T05:49:36;256.00;2252.80
57030;DHT22;42920;45.306;20.448;2023-04-15T05:52:01;256.00;2252.80
57030;DHT22;42920;45.306;20.448;2023-04-15T05:54:27;256.20;2252.80
57030;DHT22;42920;45.306;20.448;2023-04-15T05:56:53;256.30;2252.80
57030;DHT22;42920;45.306;20.448;2023-04-15T05:59:19;256.30;2252.80
57030;DHT22;42920;45.306;20.448;2023-04-15T06:01:45;256.30;2252.80
57030;DHT22;42920;45.306;20.448;2023-04-15T06:04:10;256.50;2252.80
57030;DHT22;42920;45.306;20.448;2023-04-15T06:06:36;256.50;2252.80
57030;DHT22;42920;45.306;20.448;2023-04-15T06:09:03;256.60;2252.80
57030;DHT22;42920;45.306;20.448;2023-04-15T06:11:29;256.70;2252.80
57030;DHT22;42920;45.306;20.448;2023-04-15T06:13:55;256.80;2252.80
57030;DHT22;42920;45.306;20.448;2023-04-15T06:16:21;256.90;2252.80
57030;DHT22;42920;45.306;20.448;2023-04-15T06:18:47;281.60;2278.40
57030;DHT22;42920;45.306;20.448;2023-04-15T06:21:14;256.70;2252.80
57030;DHT22;42920;45.306;20.448;2023-04-15T06:23:40;281.70;2278.40
57030;DHT22;42920;45.306;20.448;2023-04-15T06:26:06;281.80;2278.40
57030;DHT22;42920;45.306;20.448;2023-04-15T06:28:32;281.90;2278.40
57030;DHT22;42920;45.306;20.448;2023-04-15T06:30:58;282.00;2278.40
57030;DHT22;42920;45.306;20.448;2023-04-15T06:33:23;282.10;2278.40
57030;DHT22;42920;45.306;20.448;2023-04-15T06:35:49;282.20;2278.40
57030;DHT22;42920;45.306;20.448;2023-04-15T06:38:15;282.40;2278.40
57030;DHT22;42920;45.306;20.448;2023-04-15T06:40:41;282.50;2278.40
57030;DHT22;42920;45.306;20.448;2023-04-15T06:43:07;307.20;2304.00
57030;DHT22;42920;45.306;20.448;2023-04-15T06:45:33;307.40;2304.00
57030;DHT22;42920;45.306;20.448;2023-04-15T06:47:59;307.60;2304.00
57030;DHT22;42920;45.306;20.448;2023-04-15T06:50:25;307.70;2304.00
57030;DHT22;42920;45.306;20.448;2023-04-15T06:52:53;307.80;2304.00
57030;DHT22;42920;45.306;20.448;2023-04-15T06:55:18;308.00;2304.00
57030;DHT22;42920;45.306;20.448;2023-04-15T06:57:44;308.10;2304.00
57030;DHT22;42920;45.306;20.448;2023-04-15T07:00:10;332.80;2329.60
57030;DHT22;42920;45.306;20.448;2023-04-15T07:02:36;332.90;2329.60
57030;DHT22;42920;45.306;20.448;2023-04-15T07:05:04;333.00;2329.60
57030;DHT22;42920;45.306;20.448;2023-04-15T07:07:30;333.10;2329.60
57030;DHT22;42920;45.306;20.448;2023-04-15T07:09:56;333.20;2329.60
57030;DHT22;42920;45.306;20.448;2023-04-15T07:12:21;333.40;2329.60
57030;DHT22;42920;45.306;20.448;2023-04-15T07:14:47;333.40;2329.60
57030;DHT22;42920;45.306;20.448;2023-04-15T07:17:14;333.70;2329.60
57030;DHT22;42920;45.306;20.448;2023-04-15T07:19:39;358.40;2329.60
57030;DHT22;42920;45.306;20.448;2023-04-15T07:22:05;358.50;2329.60
57030;DHT22;42920;45.306;20.448;2023-04-15T07:24:32;358.50;2329.60
57030;DHT22;42920;45.306;20.448;2023-04-15T07:26:58;358.60;2329.60
57030;DHT22;42920;45.306;20.448;2023-04-15T07:29:24;358.70;2329.60
57030;DHT22;42920;45.306;20.448;2023-04-15T07:31:50;358.70;2329.60
57030;DHT22;42920;45.306;20.448;2023-04-15T07:34:15;358.80;2329.60
57030;DHT22;42920;45.306;20.448;2023-04-15T07:36:42;358.80;2329.60
57030;DHT22;42920;45.306;20.448;2023-04-15T07:39:07;358.90;2329.60
57030;DHT22;42920;45.306;20.448;2023-04-15T07:41:33;358.90;2329.60
57030;DHT22;42920;45.306;20.448;2023-04-15T07:43:59;358.90;2329.60
57030;DHT22;42920;45.306;20.448;2023-04-15T07:46:25;359.00;2329.60
57030;DHT22;42920;45.306;20.448;2023-04-15T07:48:52;359.00;2329.60
57030;DHT22;42920;45.306;20.448;2023-04-15T07:51:18;359.20;2329.60
57030;DHT22;42920;45.306;20.448;2023-04-15T07:53:48;384.00;2329.60
57030;DHT22;42920;45.306;20.448;2023-04-15T07:56:14;384.00;2329.60
57030;DHT22;42920;45.306;20.448;2023-04-15T07:58:41;384.10;2329.60
57030;DHT22;42920;45.306;20.448;2023-04-15T08:01:07;384.00;2329.60
57030;DHT22;42920;45.306;20.448;2023-04-15T08:03:33;359.30;2329.60
57030;DHT22;42920;45.306;20.448;2023-04-15T08:05:58;359.30;2329.60
57030;DHT22;42920;45.306;20.448;2023-04-15T08:08:24;384.00;2329.60
57030;DHT22;42920;45.306;20.448;2023-04-15T08:10:50;384.00;2304.00
57030;DHT22;42920;45.306;20.448;2023-04-15T08:13:17;384.00;2329.60
57030;DHT22;42920;45.306;20.448;2023-04-15T08:15:42;384.00;2304.00
57030;DHT22;42920;45.306;20.448;2023-04-15T08:18:08;384.10;2329.60
57030;DHT22;42920;45.306;20.448;2023-04-15T08:20:34;384.20;2304.00
57030;DHT22;42920;45.306;20.448;2023-04-15T08:23:00;384.20;2201.60
57030;DHT22;42920;45.306;20.448;2023-04-15T08:25:25;384.20;2150.40
57030;DHT22;42920;45.306;20.448;2023-04-15T08:27:54;384.30;2227.20
57030;DHT22;42920;45.306;20.448;2023-04-15T08:30:20;384.30;2048.00
57030;DHT22;42920;45.306;20.448;2023-04-15T08:32:47;384.20;2022.40
57030;DHT22;42920;45.306;20.448;2023-04-15T08:35:13;384.20;1996.80
57030;DHT22;42920;45.306;20.448;2023-04-15T08:37:39;384.20;1920.00
57030;DHT22;42920;45.306;20.448;2023-04-15T08:40:06;384.30;2022.40
57030;DHT22;42920;45.306;20.448;2023-04-15T08:42:36;384.40;2099.20
57030;DHT22;42920;45.306;20.448;2023-04-15T08:45:04;384.40;1996.80
57030;DHT22;42920;45.306;20.448;2023-04-15T08:47:34;384.50;2022.40
57030;DHT22;42920;45.306;20.448;2023-04-15T08:50:02;384.60;2048.00
57030;DHT22;42920;45.306;20.448;2023-04-15T08:52:30;384.70;2099.20
57030;DHT22;42920;45.306;20.448;2023-04-15T08:54:57;384.60;2048.00
57030;DHT22;42920;45.306;20.448;2023-04-15T08:57:27;384.60;2022.40
57030;DHT22;42920;45.306;20.448;2023-04-15T08:59:56;384.80;1971.20
57030;DHT22;42920;45.306;20.448;2023-04-15T09:02:25;384.80;1868.80
57030;DHT22;42920;45.306;20.448;2023-04-15T09:04:52;409.60;1945.60
57030;DHT22;42920;45.306;20.448;2023-04-15T09:07:18;409.70;1894.40
57030;DHT22;42920;45.306;20.448;2023-04-15T09:09:43;409.70;1894.40
57030;DHT22;42920;45.306;20.448;2023-04-15T09:12:10;409.90;1894.40
57030;DHT22;42920;45.306;20.448;2023-04-15T09:14:38;410.10;2048.00
57030;DHT22;42920;45.306;20.448;2023-04-15T09:17:05;410.10;1817.60
57030;DHT22;42920;45.306;20.448;2023-04-15T09:19:34;410.20;1868.80
57030;DHT22;42920;45.306;20.448;2023-04-15T09:22:01;410.40;1843.20
57030;DHT22;42920;45.306;20.448;2023-04-15T09:24:35;435.20;1894.40
57030;DHT22;42920;45.306;20.448;2023-04-15T09:27:05;410.50;1843.20
57030;DHT22;42920;45.306;20.448;2023-04-15T09:29:30;435.20;1894.40
57030;DHT22;42920;45.306;20.448;2023-04-15T09:32:19;435.20;1894.40
57030;DHT22;42920;45.306;20.448;2023-04-15T09:34:45;435.30;1920.00
57030;DHT22;42920;45.306;20.448;2023-04-15T09:37:12;435.40;1868.80
57030;DHT22;42920;45.306;20.448;2023-04-15T09:39:51;435.60;2073.60
57030;DHT22;42920;45.306;20.448;2023-04-15T09:42:17;435.80;1894.40
57030;DHT22;42920;45.306;20.448;2023-04-15T09:44:49;435.80;1894.40
57030;DHT22;42920;45.306;20.448;2023-04-15T09:47:29;435.90;1766.40
57030;DHT22;42920;45.306;20.448;2023-04-15T09:49:59;436.00;1817.60
57030;DHT22;42920;45.306;20.448;2023-04-15T09:52:25;436.10;1715.20
57030;DHT22;42920;45.306;20.448;2023-04-15T09:54:58;436.10;1638.40
57030;DHT22;42920;45.306;20.448;2023-04-15T09:57:24;460.90;1715.20
57030;DHT22;42920;45.306;20.448;2023-04-15T09:59:50;460.90;1638.40
57030;DHT22;42920;45.306;20.448;2023-04-15T10:02:18;461.00;1587.20
57030;DHT22;42920;45.306;20.448;2023-04-15T10:04:47;461.20;1587.20
57030;DHT22;42920;45.306;20.448;2023-04-15T10:07:14;461.20;1587.20
57030;DHT22;42920;45.306;20.448;2023-04-15T10:09:40;461.00;1664.00
57030;DHT22;42920;45.306;20.448;2023-04-15T10:12:06;461.10;1638.40
57030;DHT22;42920;45.306;20.448;2023-04-15T10:14:34;461.20;1612.80
57030;DHT22;42920;45.306;20.448;2023-04-15T10:17:04;461.40;1638.40
57030;DHT22;42920;45.306;20.448;2023-04-15T10:19:35;461.50;1587.20
57030;DHT22;42920;45.306;20.448;2023-04-15T10:22:02;461.50;1536.00
57030;DHT22;42920;45.306;20.448;2023-04-15T10:24:29;461.40;1612.80
57030;DHT22;42920;45.306;20.448;2023-04-15T10:26:56;461.70;1561.60
57030;DHT22;42920;45.306;20.448;2023-04-15T10:29:24;486.50;1510.40
57030;DHT22;42920;45.306;20.448;2023-04-15T10:31:55;486.90;1510.40
57030;DHT22;42920;45.306;20.448;2023-04-15T10:34:22;486.70;1484.80
57030;DHT22;42920;45.306;20.448;2023-04-15T10:36:48;486.70;1510.40
57030;DHT22;42920;45.306;20.448;2023-04-15T10:44:39;487.00;1382.40
57030;DHT22;42920;45.306;20.448;2023-04-15T10:47:10;486.90;1356.80
57030;DHT22;42920;45.306;20.448;2023-04-15T10:49:43;486.70;1382.40
57030;DHT22;42920;45.306;20.448;2023-04-15T10:52:13;486.50;1459.20
57030;DHT22;42920;45.306;20.448;2023-04-15T10:54:40;486.60;1408.00
57030;DHT22;42920;45.306;20.448;2023-04-15T10:57:06;486.70;1382.40
57030;DHT22;42920;45.306;20.448;2023-04-15T10:59:58;486.70;1382.40
57030;DHT22;42920;45.306;20.448;2023-04-15T11:02:47;486.50;1459.20
57030;DHT22;42920;45.306;20.448;2023-04-15T11:05:17;461.60;1459.20
57030;DHT22;42920;45.306;20.448;2023-04-15T11:07:47;486.50;1433.60
57030;DHT22;42920;45.306;20.448;2023-04-15T11:12:42;487.10;1459.20
57030;DHT22;42920;45.306;20.448;2023-04-15T11:20:35;512.50;1356.80
57030;DHT22;42920;45.306;20.448;2023-04-15T11:23:01;537.70;1331.20
57030;DHT22;42920;45.306;20.448;2023-04-15T11:25:29;512.60;1305.60
57030;DHT22;42920;45.306;20.448;2023-04-15T11:27:55;512.90;1305.60
57030;DHT22;42920;45.306;20.448;2023-04-15T11:30:22;537.90;1280.00
57030;DHT22;42920;45.306;20.448;2023-04-15T11:33:02;537.70;1280.00
57030;DHT22;42920;45.306;20.448;2023-04-15T11:35:29;512.10;1305.60
57030;DHT22;42920;45.306;20.448;2023-04-15T11:37:55;512.70;1280.00
57030;DHT22;42920;45.306;20.448;2023-04-15T11:40:25;512.90;1305.60
57030;DHT22;42920;45.306;20.448;2023-04-15T11:43:23;537.70;1305.60
57030;DHT22;42920;45.306;20.448;2023-04-15T11:46:00;537.80;1280.00
57030;DHT22;42920;45.306;20.448;2023-04-15T11:48:30;537.80;1280.00
57030;DHT22;42920;45.306;20.448;2023-04-15T11:50:58;512.80;1305.60
57030;DHT22;42920;45.306;20.448;2023-04-15T11:53:38;512.80;1331.20
57030;DHT22;42920;45.306;20.448;2023-04-15T11:56:05;537.80;1280.00
57030;DHT22;42920;45.306;20.448;2023-04-15T11:58:34;538.20;1254.40
57030;DHT22;42920;45.306;20.448;2023-04-15T12:01:02;538.20;1228.80
57030;DHT22;42920;45.306;20.448;2023-04-15T12:03:35;538.30;1280.00
57030;DHT22;42920;45.306;20.448;2023-04-15T12:16:29;538.50;1177.60
57030;DHT22;42920;45.306;20.448;2023-04-15T12:18:57;563.20;1203.20
57030;DHT22;42920;45.306;20.448;2023-04-15T12:21:32;563.20;1254.40
57030;DHT22;42920;45.306;20.448;2023-04-15T12:24:05;538.50;1203.20
57030;DHT22;42920;45.306;20.448;2023-04-15T12:26:46;563.40;1203.20
57030;DHT22;42920;45.306;20.448;2023-04-15T12:29:14;538.50;1203.20
57030;DHT22;42920;45.306;20.448;2023-04-15T12:31:52;563.40;1228.80
57030;DHT22;42920;45.306;20.448;2023-04-15T12:34:50;563.50;1228.80
57030;DHT22;42920;45.306;20.448;2023-04-15T12:37:16;563.30;1203.20
57030;DHT22;42920;45.306;20.448;2023-04-15T12:39:43;563.40;1203.20
57030;DHT22;42920;45.306;20.448;2023-04-15T12:42:10;538.00;1203.20
57030;DHT22;42920;45.306;20.448;2023-04-15T12:44:38;538.00;1228.80
57030;DHT22;42920;45.306;20.448;2023-04-15T12:47:04;538.10;1254.40
57030;DHT22;42920;45.306;20.448;2023-04-15T12:49:30;538.10;1254.40
57030;DHT22;42920;45.306;20.448;2023-04-15T12:51:58;538.40;1228.80
57030;DHT22;42920;45.306;20.448;2023-04-15T12:54:25;538.50;1228.80
57030;DHT22;42920;45.306;20.448;2023-04-15T12:56:51;563.30;1254.40
57030;DHT22;42920;45.306;20.448;2023-04-15T12:59:17;563.40;1228.80
57030;DHT22;42920;45.306;20.448;2023-04-15T13:01:44;563.40;1254.40
57030;DHT22;42920;45.306;20.448;2023-04-15T13:04:10;563.30;1228.80
57030;DHT22;42920;45.306;20.448;2023-04-15T13:06:36;563.60;1228.80
57030;DHT22;42920;45.306;20.448;2023-04-15T13:09:03;563.60;1254.40
57030;DHT22;42920;45.306;20.448;2023-04-15T13:11:29;563.70;1254.40
57030;DHT22;42920;45.306;20.448;2023-04-15T13:14:02;563.50;1228.80
57030;DHT22;42920;45.306;20.448;2023-04-15T13:16:28;563.50;1228.80
57030;DHT22;42920;45.306;20.448;2023-04-15T13:18:55;563.60;1228.80
57030;DHT22;42920;45.306;20.448;2023-04-15T13:21:20;563.30;1228.80
57030;DHT22;42920;45.306;20.448;2023-04-15T13:23:48;563.40;1254.40
57030;DHT22;42920;45.306;20.448;2023-04-15T13:26:15;563.50;1254.40
57030;DHT22;42920;45.306;20.448;2023-04-15T13:28:41;563.50;1228.80
57030;DHT22;42920;45.306;20.448;2023-04-15T13:31:07;563.60;1228.80
57030;DHT22;42920;45.306;20.448;2023-04-15T13:33:32;563.70;1254.40
57030;DHT22;42920;45.306;20.448;2023-04-15T13:35:58;563.80;1254.40
57030;DHT22;42920;45.306;20.448;2023-04-15T13:38:24;563.80;1203.20
57030;DHT22;42920;45.306;20.448;2023-04-15T13:40:50;563.90;1177.60
57030;DHT22;42920;45.306;20.448;2023-04-15T13:43:16;563.50;1177.60
57030;DHT22;42920;45.306;20.448;2023-04-15T13:45:42;563.40;1228.80
57030;DHT22;42920;45.306;20.448;2023-04-15T13:48:08;563.60;1203.20
57030;DHT22;42920;45.306;20.448;2023-04-15T13:50:34;563.80;1177.60
57030;DHT22;42920;45.306;20.448;2023-04-15T13:52:59;563.60;1177.60
57030;DHT22;42920;45.306;20.448;2023-04-15T13:55:25;563.60;1177.60
57030;DHT22;42920;45.306;20.448;2023-04-15T13:57:51;563.40;1177.60
57030;DHT22;42920;45.306;20.448;2023-04-15T14:00:17;538.40;1177.60
57030;DHT22;42920;45.306;20.448;2023-04-15T14:02:43;563.20;1228.80
57030;DHT22;42920;45.306;20.448;2023-04-15T14:05:09;538.50;1177.60
57030;DHT22;42920;45.306;20.448;2023-04-15T14:07:35;538.40;1177.60
57030;DHT22;42920;45.306;20.448;2023-04-15T14:10:01;538.50;1203.20
57030;DHT22;42920;45.306;20.448;2023-04-15T14:12:26;538.50;1228.80
57030;DHT22;42920;45.306;20.448;2023-04-15T14:14:52;538.50;1254.40
57030;DHT22;42920;45.306;20.448;2023-04-15T14:17:18;563.20;1254.40
57030;DHT22;42920;45.306;20.448;2023-04-15T14:19:43;538.50;1203.20
57030;DHT22;42920;45.306;20.448;2023-04-15T14:22:09;563.30;1254.40
57030;DHT22;42920;45.306;20.448;2023-04-15T14:24:35;563.30;1254.40
57030;DHT22;42920;45.306;20.448;2023-04-15T14:27:01;538.50;1228.80
57030;DHT22;42920;45.306;20.448;2023-04-15T14:29:27;538.30;1177.60
57030;DHT22;42920;45.306;20.448;2023-04-15T14:31:56;538.40;1203.20
57030;DHT22;42920;45.306;20.448;2023-04-15T14:34:23;538.30;1228.80
57030;DHT22;42920;45.306;20.448;2023-04-15T14:36:50;538.30;1254.40
57030;DHT22;42920;45.306;20.448;2023-04-15T14:39:18;538.30;1228.80
57030;DHT22;42920;45.306;20.448;2023-04-15T14:41:44;538.30;1228.80
57030;DHT22;42920;45.306;20.448;2023-04-15T14:44:10;538.10;1254.40
57030;DHT22;42920;45.306;20.448;2023-04-15T14:46:37;538.00;1254.40
57030;DHT22;42920;45.306;20.448;2023-04-15T14:49:03;538.00;1254.40
57030;DHT22;42920;45.306;20.448;2023-04-15T14:51:28;538.00;1254.40
57030;DHT22;42920;45.306;20.448;2023-04-15T14:53:55;538.00;1254.40
57030;DHT22;42920;45.306;20.448;2023-04-15T14:56:21;538.10;1254.40
57030;DHT22;42920;45.306;20.448;2023-04-15T14:58:47;538.00;1280.00